Time;durP1;ratioP1;P1;durP2;ratioP2;P2;SDS_P1;SDS_P2;PMS_P1;PMS_P2;Temp;Humidity;BMP_temperature;BMP_pressure;BME280_temperature;BME280_humidity;BME280_pressure;Samples;Min_cycle;Max_cycle;Signal;HPM_P1;HPM_P2
2021/12/11 00:01:00;;;;;;;0.80;0.70;;;;;;;;;;10437009;28;21113;-72
2021/12/11 00:06:03;;;;;;;;;;;;;;;;;;10440278;28;20128;-73
2021/12/11 00:11:09;;;;;;;2.67;0.63;;;;;;;;;;10438193;28;20408;-72
2021/12/11 00:16:13;;;;;;;1.33;1.10;;;;;;;;;;10448117;28;20048;-72
2021/12/11 00:21:17;;;;;;;0.93;0.50;;;;;;;;;;10443817;28;20408;-71
2021/12/11 00:26:26;;;;;;;3.27;1.00;;;;;;;;;;10441326;28;20094;-71
2021/12/11 00:31:29;;;;;;;2.73;0.83;;;;;;;;;;10441804;28;20091;-71
2021/12/11 00:36:32;;;;;;;0.53;0.53;;;;;;;;;;10442128;28;20029;-72
2021/12/11 00:41:37;;;;;;;3.60;1.07;;;;;;;;;;10441166;28;20302;-70
2021/12/11 00:46:40;;;;;;;3.40;1.33;;;;;;;;;;10443872;28;20103;-73
2021/12/11 00:51:49;;;;;;;0.70;0.47;;;;;;;;;;10438250;28;20040;-71
2021/12/11 00:56:53;;;;;;;1.30;0.70;;;;;;;;;;10455686;28;20047;-72
2021/12/11 01:01:56;;;;;;;;;;;;;;;;;;10461974;28;20479;-72
2021/12/11 01:07:01;;;;;;;1.37;0.87;;;;;;;;;;10438129;28;19921;-72
2021/12/11 01:12:11;;;;;;;2.93;0.93;;;;;;;;;;10440491;28;20028;-71
2021/12/11 01:17:18;;;;;;;0.63;0.33;;;;;;;;;;10459355;28;20128;-72
2021/12/11 01:22:32;;;;;;;1.43;1.17;;;;;;;;;;10451334;28;20190;-71
2021/12/11 01:27:38;;;;;;;1.20;0.70;;;;;;;;;;10448434;28;20055;-71
2021/12/11 01:32:41;;;;;;;1.83;0.80;;;;;;;;;;10461801;28;20083;-74
2021/12/11 01:37:45;;;;;;;1.20;0.70;;;;;;;;;;10454063;28;20037;-71
2021/12/11 01:42:49;;;;;;;1.80;0.70;;;;;;;;;;10449899;28;20041;-72
2021/12/11 01:47:52;;;;;;;;;;;;;;;;;;10443850;28;20359;-72
2021/12/11 01:52:57;;;;;;;0.23;0.23;;;;;;;;;;10440270;28;19974;-72
2021/12/11 01:58:01;;;;;;;1.93;1.30;;;;;;;;;;10430969;28;20045;-70
2021/12/11 02:03:03;;;;;;;;;;;;;;;;;;10430616;28;20141;-70
2021/12/11 02:08:08;;;;;;;0.10;0.10;;;;;;;;;;10433560;28;19936;-71
2021/12/11 02:13:37;;;;;;;1.13;0.80;;;;;;;;;;10443803;28;20033;-71
2021/12/11 02:18:46;;;;;;;1.97;1.07;;;;;;;;;;10430512;28;20110;-71
2021/12/11 02:23:56;;;;;;;1.10;0.53;;;;;;;;;;10418554;28;20093;-70
2021/12/11 02:29:21;;;;;;;1.27;0.50;;;;;;;;;;10428043;28;20071;-71
2021/12/11 02:34:48;;;;;;;1.37;0.57;;;;;;;;;;10438117;28;20061;-71
2021/12/11 02:39:56;;;;;;;2.60;1.17;;;;;;;;;;10440944;28;20075;-71
2021/12/11 02:45:02;;;;;;;2.40;1.27;;;;;;;;;;10440756;28;20064;-72
2021/12/11 02:50:08;;;;;;;2.70;1.10;;;;;;;;;;10453607;28;20358;-71
2021/12/11 02:55:16;;;;;;;0.70;0.70;;;;;;;;;;10431927;28;20132;-72
2021/12/11 03:00:22;;;;;;;1.30;0.60;;;;;;;;;;10429614;28;20091;-71
2021/12/11 03:05:34;;;;;;;1.67;1.00;;;;;;;;;;10438050;28;20071;-71
2021/12/11 03:10:40;;;;;;;0.33;0.33;;;;;;;;;;10442430;28;20086;-71
2021/12/11 03:15:42;;;;;;;1.00;0.90;;;;;;;;;;10406686;28;20373;-71
2021/12/11 03:20:46;;;;;;;1.27;0.77;;;;;;;;;;10447308;28;20041;-70
2021/12/11 03:25:50;;;;;;;1.42;0.73;;;;;;;;;;10437372;28;20068;-71
2021/12/11 03:30:58;;;;;;;0.40;0.40;;;;;;;;;;10430765;28;20094;-72
2021/12/11 03:36:02;;;;;;;0.77;0.70;;;;;;;;;;10430348;28;20056;-70
2021/12/11 03:41:07;;;;;;;1.17;0.90;;;;;;;;;;10426133;28;20634;-71
2021/12/11 03:46:11;;;;;;;0.97;0.70;;;;;;;;;;10439068;28;20063;-71
2021/12/11 03:51:17;;;;;;;0.73;0.40;;;;;;;;;;10445484;28;20490;-70
2021/12/11 03:56:22;;;;;;;1.80;0.90;;;;;;;;;;10438917;28;20104;-71
2021/12/11 04:01:27;;;;;;;2.10;1.23;;;;;;;;;;10430211;28;20565;-71
2021/12/11 04:06:30;;;;;;;1.50;0.93;;;;;;;;;;10430999;28;20048;-71
2021/12/11 04:11:35;;;;;;;0.67;0.67;;;;;;;;;;10430251;28;20057;-71
2021/12/11 04:16:59;;;;;;;0.70;0.63;;;;;;;;;;10437796;28;20045;-70
2021/12/11 04:22:04;;;;;;;0.05;0.05;;;;;;;;;;10439913;28;20030;-72
2021/12/11 04:27:09;;;;;;;1.17;0.63;;;;;;;;;;10443176;28;20041;-72
2021/12/11 04:32:12;;;;;;;1.37;0.73;;;;;;;;;;10461524;28;20100;-71
2021/12/11 04:37:17;;;;;;;3.43;1.37;;;;;;;;;;10441425;28;20049;-72
2021/12/11 04:42:32;;;;;;;1.30;1.00;;;;;;;;;;10445541;28;20053;-72
2021/12/11 04:47:40;;;;;;;1.40;0.60;;;;;;;;;;10438537;28;20045;-72
2021/12/11 04:52:53;;;;;;;0.63;0.47;;;;;;;;;;10456171;28;20045;-72
2021/12/11 05:03:47;;;;;;;3.00;1.57;;;;;;;;;;10425156;28;20049;-72
2021/12/11 05:14:17;;;;;;;1.20;0.90;;;;;;;;;;10417229;28;20103;-70
2021/12/11 05:19:20;;;;;;;1.53;1.00;;;;;;;;;;10440005;28;20044;-71
2021/12/11 05:24:22;;;;;;;3.20;1.40;;;;;;;;;;10436867;28;20462;-70
2021/12/11 05:29:27;;;;;;;2.27;1.60;;;;;;;;;;10443107;28;20053;-70
2021/12/11 05:34:29;;;;;;;;;;;;;;;;;;10440528;28;20097;-70
2021/12/11 05:39:32;;;;;;;2.83;1.10;;;;;;;;;;10428245;28;19996;-70
2021/12/11 05:44:37;;;;;;;0.40;0.40;;;;;;;;;;10432237;28;20127;-71
2021/12/11 05:49:41;;;;;;;;;;;;;;;;;;10441294;28;20714;-71
2021/12/11 05:54:45;;;;;;;0.60;0.30;;;;;;;;;;10435025;28;20000;-71
2021/12/11 05:59:50;;;;;;;1.07;0.87;;;;;;;;;;10417998;28;20060;-71
2021/12/11 06:04:58;;;;;;;2.87;0.50;;;;;;;;;;10451871;28;20029;-71
2021/12/11 06:10:04;;;;;;;0.97;0.63;;;;;;;;;;10414143;28;20509;-71
2021/12/11 06:15:09;;;;;;;0.57;0.50;;;;;;;;;;10428268;28;20480;-72
2021/12/11 06:20:13;;;;;;;2.90;1.10;;;;;;;;;;10444650;28;20038;-71
2021/12/11 06:25:18;;;;;;;0.43;0.43;;;;;;;;;;10442262;28;20455;-71
2021/12/11 06:30:23;;;;;;;2.60;1.23;;;;;;;;;;10435036;28;20079;-71
2021/12/11 06:35:28;;;;;;;1.40;0.73;;;;;;;;;;10438422;28;20094;-72
2021/12/11 06:40:31;;;;;;;1.13;0.70;;;;;;;;;;10422724;28;20128;-71
2021/12/11 06:45:37;;;;;;;3.37;1.60;;;;;;;;;;10442511;28;20033;-72
2021/12/11 06:50:40;;;;;;;2.40;1.47;;;;;;;;;;10433494;28;20029;-70
2021/12/11 06:55:43;;;;;;;3.67;1.20;;;;;;;;;;10408407;28;20037;-71
2021/12/11 07:00:47;;;;;;;0.50;0.40;;;;;;;;;;10428309;28;20471;-70
2021/12/11 07:05:51;;;;;;;1.43;1.00;;;;;;;;;;10430811;28;20044;-70
2021/12/11 07:10:54;;;;;;;1.17;0.70;;;;;;;;;;10435885;28;20200;-71
2021/12/11 07:15:58;;;;;;;0.57;0.57;;;;;;;;;;10426233;28;20060;-73
2021/12/11 07:21:02;;;;;;;1.10;0.97;;;;;;;;;;10416933;28;20091;-70
2021/12/11 07:26:05;;;;;;;;;;;;;;;;;;10436504;28;20120;-71
2021/12/11 07:31:11;;;;;;;3.47;1.70;;;;;;;;;;10432012;28;19944;-71
2021/12/11 07:36:14;;;;;;;1.60;0.73;;;;;;;;;;10430346;28;20667;-71
2021/12/11 07:41:17;;;;;;;2.70;1.23;;;;;;;;;;10433376;28;20047;-72
2021/12/11 07:46:23;;;;;;;1.45;0.90;;;;;;;;;;10429031;28;20038;-72
2021/12/11 07:51:27;;;;;;;0.97;0.53;;;;;;;;;;10432230;28;20060;-72
2021/12/11 07:56:34;;;;;;;0.23;0.23;;;;;;;;;;10432955;28;20432;-71
2021/12/11 08:01:42;;;;;;;1.60;0.87;;;;;;;;;;10428951;28;20523;-72
2021/12/11 08:06:45;;;;;;;0.50;0.37;;;;;;;;;;10455684;28;20040;-72
2021/12/11 08:11:49;;;;;;;1.40;0.63;;;;;;;;;;10429395;28;20086;-72
2021/12/11 08:16:57;;;;;;;0.93;0.67;;;;;;;;;;10433104;28;20114;-70
2021/12/11 08:22:01;;;;;;;0.90;0.80;;;;;;;;;;10426923;28;20083;-72
2021/12/11 08:27:06;;;;;;;1.35;1.00;;;;;;;;;;10441443;28;20098;-70
2021/12/11 08:32:11;;;;;;;2.20;1.00;;;;;;;;;;10432356;28;20060;-69
2021/12/11 08:37:16;;;;;;;2.27;0.77;;;;;;;;;;10424136;28;20041;-71
2021/12/11 08:42:21;;;;;;;1.87;1.23;;;;;;;;;;10433581;28;20498;-72
2021/12/11 08:47:25;;;;;;;0.90;0.70;;;;;;;;;;10432819;28;20037;-73
2021/12/11 08:52:29;;;;;;;1.70;1.07;;;;;;;;;;10442593;28;20116;-72
2021/12/11 08:57:33;;;;;;;2.30;1.15;;;;;;;;;;10440211;28;20074;-71
2021/12/11 09:02:40;;;;;;;2.80;1.67;;;;;;;;;;10439185;28;20061;-71
2021/12/11 09:07:45;;;;;;;4.03;2.00;;;;;;;;;;10436241;28;20095;-72
2021/12/11 09:12:49;;;;;;;3.60;1.90;;;;;;;;;;10440442;28;20029;-72
2021/12/11 09:17:56;;;;;;;2.10;1.40;;;;;;;;;;10435187;28;20396;-72
2021/12/11 09:23:03;;;;;;;3.07;1.00;;;;;;;;;;10439402;28;20105;-72
2021/12/11 09:28:08;;;;;;;1.40;0.80;;;;;;;;;;10442034;28;20060;-71
2021/12/11 09:33:15;;;;;;;2.83;0.70;;;;;;;;;;10439881;28;20037;-72
2021/12/11 09:38:20;;;;;;;1.17;0.73;;;;;;;;;;10434402;28;20037;-71
2021/12/11 09:43:41;;;;;;;1.97;1.23;;;;;;;;;;10422518;28;20044;-72
2021/12/11 09:48:48;;;;;;;2.13;1.33;;;;;;;;;;10439207;28;20064;-72
2021/12/11 09:53:52;;;;;;;2.43;1.80;;;;;;;;;;10433559;28;20041;-71
2021/12/11 09:58:55;;;;;;;3.70;1.57;;;;;;;;;;10424829;28;20136;-72
2021/12/11 10:04:02;;;;;;;5.00;1.53;;;;;;;;;;10431075;28;20045;-72
2021/12/11 10:09:17;;;;;;;3.77;1.77;;;;;;;;;;10432016;28;20033;-72
2021/12/11 10:14:22;;;;;;;2.93;1.70;;;;;;;;;;10428039;28;20120;-73
2021/12/11 10:19:29;;;;;;;1.70;1.40;;;;;;;;;;10426923;28;20406;-73
2021/12/11 10:24:32;;;;;;;1.13;0.90;;;;;;;;;;10433218;28;20047;-71
2021/12/11 10:29:35;;;;;;;3.67;1.52;;;;;;;;;;10432101;28;20116;-71
2021/12/11 10:34:41;;;;;;;3.00;1.70;;;;;;;;;;10413171;28;20450;-70
2021/12/11 10:39:45;;;;;;;3.73;1.60;;;;;;;;;;10433401;28;20045;-71
2021/12/11 10:44:48;;;;;;;;;;;;;;;;;;10429672;28;20119;-71
2021/12/11 10:49:52;;;;;;;2.43;1.30;;;;;;;;;;10442452;28;19986;-71
2021/12/11 10:54:57;;;;;;;2.87;1.87;;;;;;;;;;10434775;28;20029;-71
2021/12/11 10:59:59;;;;;;;;;;;;;;;;;;10448875;28;20037;-71
2021/12/11 11:05:06;;;;;;;3.17;1.10;;;;;;;;;;10437176;28;19974;-71
2021/12/11 11:10:11;;;;;;;2.87;1.83;;;;;;;;;;10440951;28;20045;-71
2021/12/11 11:15:17;;;;;;;5.27;2.00;;;;;;;;;;10443073;28;20094;-72
2021/12/11 11:20:23;;;;;;;2.00;1.40;;;;;;;;;;10450088;28;20048;-71
2021/12/11 11:25:28;;;;;;;2.20;1.40;;;;;;;;;;10476896;28;20025;-71
2021/12/11 11:30:32;;;;;;;3.23;1.00;;;;;;;;;;10484948;28;20044;-72
2021/12/11 11:35:42;;;;;;;3.57;1.57;;;;;;;;;;10455480;28;20130;-72
2021/12/11 11:40:47;;;;;;;1.03;0.90;;;;;;;;;;10418552;28;20093;-71
2021/12/11 11:45:52;;;;;;;3.40;1.43;;;;;;;;;;10434091;28;20099;-71
2021/12/11 11:50:59;;;;;;;2.73;1.77;;;;;;;;;;10440292;28;20045;-71
2021/12/11 11:56:04;;;;;;;4.37;2.00;;;;;;;;;;10432130;28;20033;-71
2021/12/11 12:01:08;;;;;;;4.03;1.83;;;;;;;;;;10430069;28;20038;-72
2021/12/11 12:06:14;;;;;;;4.03;1.83;;;;;;;;;;10435677;28;20042;-72
2021/12/11 12:11:17;;;;;;;2.07;1.53;;;;;;;;;;10449582;28;20052;-72
2021/12/11 12:16:20;;;;;;;4.17;2.30;;;;;;;;;;10418833;28;20127;-71
2021/12/11 12:21:24;;;;;;;1.60;1.03;;;;;;;;;;10438179;28;20629;-73
2021/12/11 12:26:29;;;;;;;4.07;2.20;;;;;;;;;;10433918;28;20057;-71
2021/12/11 12:31:33;;;;;;;2.83;1.50;;;;;;;;;;10440949;28;20388;-71
2021/12/11 12:36:45;;;;;;;3.53;2.03;;;;;;;;;;10435168;28;20087;-71
2021/12/11 12:41:58;;;;;;;1.93;1.30;;;;;;;;;;10435985;28;20041;-71
2021/12/11 12:47:05;;;;;;;2.77;1.60;;;;;;;;;;10442605;28;20033;-71
2021/12/11 12:52:15;;;;;;;1.63;1.10;;;;;;;;;;10438512;28;20045;-72
2021/12/11 12:57:19;;;;;;;2.60;1.13;;;;;;;;;;10439037;28;20484;-71
2021/12/11 13:02:23;;;;;;;1.50;1.27;;;;;;;;;;10465409;28;20045;-71
2021/12/11 13:07:27;;;;;;;1.80;1.23;;;;;;;;;;10438890;28;20144;-71
2021/12/11 13:12:31;;;;;;;;;;;;;;;;;;10442829;28;20438;-71
2021/12/11 13:17:35;;;;;;;1.03;0.93;;;;;;;;;;10439442;28;19974;-71
2021/12/11 13:22:43;;;;;;;0.40;0.37;;;;;;;;;;10439933;28;20048;-71
2021/12/11 13:27:47;;;;;;;2.73;1.53;;;;;;;;;;10443767;28;20033;-71
2021/12/11 13:32:50;;;;;;;3.57;1.57;;;;;;;;;;10426830;28;20048;-72
2021/12/11 13:37:55;;;;;;;5.83;2.53;;;;;;;;;;10430574;28;20095;-70
2021/12/11 13:42:58;;;;;;;6.77;2.77;;;;;;;;;;10432312;28;20094;-71
2021/12/11 13:48:02;;;;;;;4.87;1.80;;;;;;;;;;10427873;28;20111;-71
2021/12/11 13:53:07;;;;;;;4.93;2.60;;;;;;;;;;10421065;28;20040;-71
2021/12/11 13:58:12;;;;;;;5.33;2.50;;;;;;;;;;10444551;28;20076;-71
2021/12/11 14:03:17;;;;;;;4.47;2.83;;;;;;;;;;10434657;28;20155;-71
2021/12/11 14:08:21;;;;;;;4.50;2.30;;;;;;;;;;10426140;28;20029;-71
2021/12/11 14:13:24;;;;;;;;;;;;;;;;;;10441599;28;20071;-71
2021/12/11 14:18:27;;;;;;;4.90;1.30;;;;;;;;;;10438833;28;20006;-71
2021/12/11 14:23:35;;;;;;;4.50;2.20;;;;;;;;;;10438283;28;20500;-71
2021/12/11 14:28:38;;;;;;;10.03;3.50;;;;;;;;;;10439462;28;20037;-71
2021/12/11 14:33:43;;;;;;;3.75;2.47;;;;;;;;;;10434711;28;20110;-71
2021/12/11 14:38:48;;;;;;;3.78;2.15;;;;;;;;;;10425399;28;20041;-71
2021/12/11 14:43:51;;;;;;;1.73;1.27;;;;;;;;;;10461638;28;20029;-73
2021/12/11 14:48:54;;;;;;;7.43;4.17;;;;;;;;;;10441328;28;20091;-72
2021/12/11 14:53:59;;;;;;;3.23;1.83;;;;;;;;;;10435738;28;20033;-70
2021/12/11 14:59:05;;;;;;;4.97;2.67;;;;;;;;;;10442137;28;20045;-70
2021/12/11 15:04:11;;;;;;;8.33;2.87;;;;;;;;;;10439492;28;20033;-71
2021/12/11 15:09:15;;;;;;;8.90;4.13;;;;;;;;;;10438779;28;20654;-70
2021/12/11 15:14:19;;;;;;;;;;;;;;;;;;10428443;28;20076;-70
2021/12/11 15:19:22;;;;;;;4.68;1.70;;;;;;;;;;10412909;28;20373;-71
2021/12/11 15:24:27;;;;;;;6.57;3.23;;;;;;;;;;10429566;28;20037;-72
2021/12/11 15:29:34;;;;;;;8.07;2.73;;;;;;;;;;10423690;28;20075;-71
2021/12/11 15:34:37;;;;;;;4.53;1.17;;;;;;;;;;10444188;28;20037;-71
2021/12/11 15:39:43;;;;;;;11.73;4.60;;;;;;;;;;10423039;28;20040;-71
2021/12/11 15:44:49;;;;;;;9.77;3.83;;;;;;;;;;10427737;28;20408;-72
2021/12/11 15:49:52;;;;;;;10.23;4.13;;;;;;;;;;10425307;28;20079;-71
2021/12/11 15:54:58;;;;;;;8.70;4.80;;;;;;;;;;10433313;28;20489;-70
2021/12/11 16:00:01;;;;;;;7.80;2.47;;;;;;;;;;10429865;28;20076;-70
2021/12/11 16:05:05;;;;;;;8.60;3.00;;;;;;;;;;10423591;28;20120;-69
2021/12/11 16:10:10;;;;;;;14.43;6.20;;;;;;;;;;10398703;28;20551;-69
2021/12/11 16:15:15;;;;;;;9.10;3.47;;;;;;;;;;10401270;28;20050;-71
2021/12/11 16:20:19;;;;;;;9.03;4.30;;;;;;;;;;10435629;28;20041;-71
2021/12/11 16:25:22;;;;;;;;;;;;;;;;;;10437766;28;20034;-70
2021/12/11 16:30:30;;;;;;;7.73;3.63;;;;;;;;;;10445354;28;20402;-71
2021/12/11 16:35:34;;;;;;;11.43;3.77;;;;;;;;;;10448291;28;20037;-71
2021/12/11 16:40:41;;;;;;;5.38;3.20;;;;;;;;;;10446501;28;20049;-71
2021/12/11 16:45:48;;;;;;;11.20;5.00;;;;;;;;;;10435244;28;20105;-72
2021/12/11 16:50:53;;;;;;;7.93;2.93;;;;;;;;;;10434382;28;20036;-71
2021/12/11 17:02:09;;;;;;;6.20;3.43;;;;;;;;;;10300929;28;20070;-68
2021/12/11 17:07:13;;;;;;;9.97;4.47;;;;;;;;;;10283406;28;20046;-69
2021/12/11 17:12:17;;;;;;;5.70;2.97;;;;;;;;;;10283755;28;20411;-68
2021/12/11 17:17:21;;;;;;;17.38;7.55;;;;;;;;;;10282835;28;20062;-67
2021/12/11 17:22:25;;;;;;;3.83;2.23;;;;;;;;;;10292210;28;20620;-69
2021/12/11 17:27:28;;;;;;;13.98;5.97;;;;;;;;;;10295964;28;20053;-69
2021/12/11 17:32:32;;;;;;;16.83;5.60;;;;;;;;;;10291328;28;20541;-68
2021/12/11 17:37:36;;;;;;;5.87;2.67;;;;;;;;;;10286841;28;20042;-69
2021/12/11 17:42:43;;;;;;;12.20;4.77;;;;;;;;;;10295767;28;20141;-68
2021/12/11 17:47:48;;;;;;;18.23;6.43;;;;;;;;;;10293910;28;20118;-70
2021/12/11 17:52:51;;;;;;;20.07;8.10;;;;;;;;;;10286819;28;20045;-70
2021/12/11 17:57:54;;;;;;;10.07;3.53;;;;;;;;;;10287454;28;20050;-68
2021/12/11 18:02:59;;;;;;;7.73;3.37;;;;;;;;;;10275823;28;20142;-69
2021/12/11 18:08:04;;;;;;;15.67;6.80;;;;;;;;;;10283687;28;20035;-69
2021/12/11 18:13:16;;;;;;;4.87;2.77;;;;;;;;;;10279039;28;20055;-67
2021/12/11 18:18:22;;;;;;;19.97;6.50;;;;;;;;;;10289339;28;20057;-67
2021/12/11 18:23:26;;;;;;;18.93;7.97;;;;;;;;;;10285746;28;20049;-70
2021/12/11 18:28:29;;;;;;;21.23;7.25;;;;;;;;;;10275411;28;20129;-68
2021/12/11 18:33:34;;;;;;;28.53;9.87;;;;;;;;;;10284539;28;20046;-68
2021/12/11 18:38:40;;;;;;;13.00;5.67;;;;;;;;;;10278827;28;20069;-67
2021/12/11 18:43:44;;;;;;;10.17;3.47;;;;;;;;;;10275696;28;20043;-68
2021/12/11 18:48:49;;;;;;;18.50;6.73;;;;;;;;;;10269575;28;20031;-67
2021/12/11 18:53:52;;;;;;;;;;;;;;;;;;10259487;28;20057;-69
2021/12/11 18:58:56;;;;;;;10.37;2.67;;;;;;;;;;10264260;28;19950;-66
2021/12/11 19:04:05;;;;;;;11.33;5.27;;;;;;;;;;10263508;28;20406;-68
2021/12/11 19:09:09;;;;;;;6.70;3.33;;;;;;;;;;10280457;28;20464;-69
2021/12/11 19:14:12;;;;;;;17.33;5.67;;;;;;;;;;10276849;28;20053;-69
2021/12/11 19:19:17;;;;;;;26.27;8.93;;;;;;;;;;10286794;28;20109;-70
2021/12/11 19:24:21;;;;;;;14.03;5.23;;;;;;;;;;10286340;28;20584;-69
2021/12/11 19:29:45;;;;;;;8.10;4.17;;;;;;;;;;10269932;28;20034;-66
2021/12/11 19:34:49;;;;;;;19.17;8.10;;;;;;;;;;10288981;28;20094;-70
2021/12/11 19:39:52;;;;;;;;;;;;;;;;;;10295959;28;20456;-71
2021/12/11 19:44:55;;;;;;;16.30;7.67;;;;;;;;;;10288569;28;20028;-67
2021/12/11 19:49:59;;;;;;;10.50;3.80;;;;;;;;;;10277072;28;20039;-68
2021/12/11 19:55:01;;;;;;;;;;;;;;;;;;10292907;28;20047;-68
2021/12/11 20:00:10;;;;;;;19.30;6.67;;;;;;;;;;10286938;28;19944;-68
2021/12/11 20:05:21;;;;;;;17.83;7.43;;;;;;;;;;10295923;28;20504;-70
2021/12/11 20:10:26;;;;;;;12.97;5.67;;;;;;;;;;10273811;28;20042;-69
2021/12/11 20:15:32;;;;;;;6.13;2.67;;;;;;;;;;10302832;28;20184;-69
2021/12/11 20:20:37;;;;;;;11.73;3.53;;;;;;;;;;10286020;28;20047;-67
2021/12/11 20:25:40;;;;;;;14.83;6.10;;;;;;;;;;10278013;28;20109;-69
2021/12/11 20:30:45;;;;;;;20.67;6.50;;;;;;;;;;10300597;28;20047;-72
2021/12/11 20:35:50;;;;;;;16.40;5.67;;;;;;;;;;10291395;28;20093;-69
2021/12/11 20:40:55;;;;;;;15.30;6.17;;;;;;;;;;10285275;28;20050;-69
2021/12/11 20:45:57;;;;;;;;;;;;;;;;;;10280252;28;20109;-69
2021/12/11 20:51:03;;;;;;;9.23;4.93;;;;;;;;;;10283159;28;19926;-70
2021/12/11 20:56:06;;;;;;;11.37;3.43;;;;;;;;;;10282181;28;20075;-69
2021/12/11 21:01:11;;;;;;;8.57;3.77;;;;;;;;;;10282020;28;20138;-69
2021/12/11 21:06:17;;;;;;;9.07;4.63;;;;;;;;;;10267987;28;20043;-68
2021/12/11 21:11:22;;;;;;;7.47;4.00;;;;;;;;;;10284767;28;20503;-70
2021/12/11 21:16:27;;;;;;;16.00;6.73;;;;;;;;;;10286295;28;20065;-68
2021/12/11 21:21:34;;;;;;;18.27;6.37;;;;;;;;;;10284032;28;20425;-69
2021/12/11 21:26:38;;;;;;;15.90;6.07;;;;;;;;;;10283000;28;20050;-70
2021/12/11 21:31:43;;;;;;;16.88;6.78;;;;;;;;;;10287681;28;20150;-71
2021/12/11 21:36:47;;;;;;;11.87;5.10;;;;;;;;;;10289267;28;20042;-72
2021/12/11 21:41:51;;;;;;;;;;;;;;;;;;10280695;28;20070;-72
2021/12/11 21:46:58;;;;;;;11.87;4.93;;;;;;;;;;10277960;28;19962;-70
2021/12/11 21:52:09;;;;;;;17.93;6.33;;;;;;;;;;10274551;28;20469;-72
2021/12/11 21:57:14;;;;;;;5.10;2.50;;;;;;;;;;10285447;28;20054;-70
2021/12/11 22:02:18;;;;;;;14.73;6.30;;;;;;;;;;10283576;28;20074;-70
2021/12/11 22:07:23;;;;;;;13.53;5.83;;;;;;;;;;10278680;28;20069;-69
2021/12/11 22:12:28;;;;;;;6.37;2.93;;;;;;;;;;10269945;28;20057;-71
2021/12/11 22:17:30;;;;;;;;;;;;;;;;;;10280581;28;20097;-68
2021/12/11 22:22:35;;;;;;;9.77;4.07;;;;;;;;;;10282354;28;19922;-70
2021/12/11 22:27:38;;;;;;;12.37;4.93;;;;;;;;;;10281519;28;20066;-68
2021/12/11 22:32:41;;;;;;;8.33;3.07;;;;;;;;;;10277782;28;20069;-71
2021/12/11 22:37:46;;;;;;;9.90;3.93;;;;;;;;;;10270268;28;20584;-69
2021/12/11 22:42:49;;;;;;;13.13;5.50;;;;;;;;;;10279062;28;20050;-70
2021/12/11 22:47:53;;;;;;;7.05;3.40;;;;;;;;;;10270311;28;20039;-71
2021/12/11 22:52:59;;;;;;;15.47;5.97;;;;;;;;;;10284722;28;20047;-72
2021/12/11 22:58:06;;;;;;;5.20;2.40;;;;;;;;;;10281691;28;20046;-71
2021/12/11 23:03:10;;;;;;;7.13;3.33;;;;;;;;;;10274926;28;20522;-70
2021/12/11 23:08:16;;;;;;;4.33;2.50;;;;;;;;;;10267251;28;20038;-71
2021/12/11 23:13:20;;;;;;;6.93;2.80;;;;;;;;;;10277591;28;20420;-69
2021/12/11 23:18:23;;;;;;;;;;;;;;;;;;10260769;28;20256;-69
2021/12/11 23:23:34;;;;;;;6.63;2.67;;;;;;;;;;10274926;28;19922;-69
2021/12/11 23:28:39;;;;;;;5.87;3.00;;;;;;;;;;10275064;28;20125;-69
2021/12/11 23:33:46;;;;;;;6.17;2.43;;;;;;;;;;10268894;28;20046;-71
2021/12/11 23:38:58;;;;;;;13.40;5.00;;;;;;;;;;10273358;28;20043;-70
2021/12/11 23:44:02;;;;;;;14.43;5.67;;;;;;;;;;10270028;28;20442;-71
2021/12/11 23:49:07;;;;;;;10.57;5.13;;;;;;;;;;10271709;28;20066;-70
2021/12/11 23:54:13;;;;;;;6.22;2.50;;;;;;;;;;10267153;28;20090;-71
2021/12/11 23:59:19;;;;;;;7.83;3.43;;;;;;;;;;10247174;28;20137;-73
